Terminal Aerodrome Forecast
Issued by NWS

Home | Current Version | Previous Version | Text Only | Print | Product List | Glossary On
Versions: 1 2 3 4 5 6 7 8 9 10 11 12 13 14 15 16 17 18 19 20 21 22 23 24 25 26
000
FTUS44 KFWD 262106 AAA
TAFAFW
TAF AMD
KAFW 262106Z 2621/2718 18015KT P6SM BKN026
     FM262300 17014KT P6SM VCSH BKN020
     FM270300 10012KT 5SM -DZ BR OVC010
     FM270600 10009KT 2SM -DZ BR OVC008
     FM271200 17012KT 5SM BR OVC015
     FM271700 21014KT P6SM SCT015=

USA.gov is the U.S. government's official web portal to all federal, state and local government web resources and services.